Waterloo, Wisconsin
Current Conditions -  °F | °C
As of 2:55 AM on Friday 31 Oct 2014 (Local Time) from KRYV Reporting Station
Overcast Overcast  
Wind Chill: 27°   Ceiling: 2300
Heat Index: 37°   Visibility: 10mi
Dew Point: 31°   Wind: 21mph
Humidity: 76%   Direction: 330°NNW
Pressure: 30.07"   Gusts: 31mph
Location:  43.18°N, 88.99°W
Report Text: KRYV 310755Z AUTO 33018G27KT 10SM BKN023 OVC028 03/M01 A3007 RMK AO2 T00301008
Loading
Personal Weather Stations






























Interactive Weather Map New forecast layout! Learn more

10-Day Weather Forecast

Advertisements
Track Severe Weather on mobile